createdAt,value
2022-08-09T00:00:00.459Z,101231.69
2022-08-09T00:02:28.258Z,101241.94
2022-08-09T00:05:03.466Z,101240.09
2022-08-09T00:07:44.703Z,101244.31
2022-08-09T00:10:21.044Z,101234.53
2022-08-09T00:12:52.318Z,101236.81
2022-08-09T00:15:35.430Z,101232.06
2022-08-09T00:18:12.076Z,101232.47
2022-08-09T00:20:42.467Z,101214.25
2022-08-09T00:23:56.939Z,101229.84
2022-08-09T00:26:06.440Z,101224.66
2022-08-09T00:28:34.504Z,101208.84
2022-08-09T00:31:30.552Z,101218.63
2022-08-09T00:33:50.945Z,101218.38
2022-08-09T00:36:18.947Z,101216.13
2022-08-09T00:38:45.885Z,101223.38
2022-08-09T00:44:13.490Z,101219.66
2022-08-09T00:44:14.578Z,101219.88
2022-08-09T00:46:56.508Z,101216.34
2022-08-09T00:49:28.075Z,101218.19
2022-08-09T00:51:57.108Z,101217.19
2022-08-09T00:54:35.061Z,101221.78
2022-08-09T00:57:10.151Z,101223.69
2022-08-09T00:59:41.389Z,101233.44
2022-08-09T01:02:19.250Z,101233.25
2022-08-09T01:04:57.169Z,101235.97
2022-08-09T01:07:59.902Z,101230.34
2022-08-09T01:10:58.328Z,101237.63
2022-08-09T01:13:41.758Z,101231.63
2022-08-09T01:16:11.491Z,101240.16
2022-08-09T01:18:47.423Z,101232.06
2022-08-09T01:21:44.961Z,101238.94
2022-08-09T01:24:37.625Z,101233.53
2022-08-09T01:27:15.093Z,101238.53
2022-08-09T01:29:56.583Z,101240.22
2022-08-09T01:32:45.476Z,101222.56
2022-08-09T01:35:37.836Z,101225.69
2022-08-09T01:38:15.347Z,101226.50
2022-08-09T01:40:52.935Z,101229.81
2022-08-09T01:43:50.549Z,101225.47
2022-08-09T01:46:24.823Z,101218.59
2022-08-09T01:49:00.284Z,101222.38
2022-08-09T01:51:44.292Z,101229.19
2022-08-09T01:54:13.617Z,101219.66
2022-08-09T01:56:44.029Z,101221.94
2022-08-09T01:59:21.303Z,101219.03
2022-08-09T02:01:59.031Z,101216.34
2022-08-09T02:04:29.534Z,101224.25
2022-08-09T02:07:21.217Z,101218.22
2022-08-09T02:10:17.175Z,101222.78
2022-08-09T02:12:46.066Z,101227.56
2022-08-09T02:15:16.841Z,101225.25
2022-08-09T02:18:00.095Z,101233.75
2022-08-09T02:20:35.069Z,101236.91
2022-08-09T02:23:20.306Z,101225.88
2022-08-09T02:25:55.861Z,101232.09
2022-08-09T02:28:31.744Z,101223.81
2022-08-09T02:31:28.161Z,101229.00
2022-08-09T02:34:12.971Z,101226.50
2022-08-09T02:36:42.850Z,101230.22
2022-08-09T02:39:33.808Z,101230.44
2022-08-09T02:42:13.051Z,101224.63
2022-08-09T02:44:42.705Z,101223.19
2022-08-09T02:47:13.125Z,101216.13
2022-08-09T02:50:04.558Z,101218.81
2022-08-09T02:52:44.519Z,101209.03
2022-08-09T02:55:20.813Z,101203.03
2022-08-09T02:58:00.624Z,101186.84
2022-08-09T03:00:47.855Z,101208.22
2022-08-09T03:04:12.243Z,101209.25
2022-08-09T03:06:14.877Z,101212.81
2022-08-09T03:08:45.888Z,101218.22
2022-08-09T03:12:04.501Z,101224.84
2022-08-09T03:14:05.056Z,101228.59
2022-08-09T03:16:33.671Z,101222.78
2022-08-09T03:19:04.336Z,101229.81
2022-08-09T03:21:42.580Z,101225.66
2022-08-09T03:24:31.558Z,101229.34
2022-08-09T03:27:07.283Z,101227.09
2022-08-09T03:29:43.075Z,101221.91
2022-08-09T03:32:22.269Z,101226.47
2022-08-09T03:34:49.053Z,101217.31
2022-08-09T03:37:58.340Z,101233.88
2022-08-09T03:40:08.223Z,101236.78
2022-08-09T03:42:39.702Z,101236.78
2022-08-09T03:45:10.271Z,101229.72
2022-08-09T03:47:39.963Z,101235.13
2022-08-09T03:50:09.760Z,101230.34
2022-08-09T03:52:40.481Z,101217.63
2022-08-09T03:55:10.595Z,101235.94
2022-08-09T03:57:53.497Z,101235.72
2022-08-09T04:00:24.833Z,101242.22
2022-08-09T04:02:54.037Z,101234.72
2022-08-09T04:05:27.557Z,101243.44
2022-08-09T04:07:57.157Z,101225.72
2022-08-09T04:10:28.410Z,101246.31
2022-08-09T04:12:56.218Z,101242.19
2022-08-09T04:15:42.665Z,101253.84
2022-08-09T04:18:16.609Z,101261.31
2022-08-09T04:20:46.070Z,101261.31
2022-08-09T04:23:16.826Z,101262.56
2022-08-09T04:25:44.941Z,101262.56
2022-08-09T04:28:30.772Z,101256.78
2022-08-09T04:31:00.681Z,101258.81
2022-08-09T04:33:34.237Z,101259.47
2022-08-09T04:36:19.391Z,101255.91
2022-08-09T04:38:45.892Z,101259.69
2022-08-09T04:41:13.967Z,101260.91
2022-08-09T04:43:53.959Z,101279.56
2022-08-09T04:46:57.055Z,101279.34
2022-08-09T04:49:14.765Z,101261.06
2022-08-09T04:51:41.389Z,101280.78
2022-08-09T04:54:07.770Z,101281.22
2022-08-09T04:56:34.326Z,101290.75
2022-08-09T04:59:04.898Z,101283.31
2022-08-09T05:01:39.403Z,101279.56
2022-08-09T05:04:06.254Z,101280.81
2022-08-09T05:06:35.860Z,101284.75
2022-08-09T05:09:02.516Z,101279.78
2022-08-09T05:11:32.010Z,101285.81
2022-08-09T05:14:01.758Z,101284.16
2022-08-09T05:16:32.681Z,101285.81
2022-08-09T05:19:00.590Z,101264.81
2022-08-09T05:21:30.544Z,101288.31
2022-08-09T05:24:13.326Z,101289.56
2022-08-09T05:26:46.108Z,101269.22
2022-08-09T05:29:23.060Z,101288.16
2022-08-09T05:31:57.186Z,101290.03
2022-08-09T05:34:30.900Z,101288.19
2022-08-09T05:37:01.852Z,101282.16
2022-08-09T05:39:35.666Z,101310.19
2022-08-09T05:42:04.369Z,101294.22
2022-08-09T05:44:34.633Z,101289.88
2022-08-09T05:47:05.608Z,101301.31
2022-08-09T05:50:24.184Z,101293.84
2022-08-09T05:52:19.695Z,101267.84
2022-08-09T05:54:46.169Z,101289.47
2022-08-09T05:57:17.610Z,101291.75
2022-08-09T05:59:46.160Z,101301.91
2022-08-09T06:02:17.114Z,101300.03
2022-08-09T06:04:46.262Z,101312.91
2022-08-09T06:07:21.391Z,101300.22
2022-08-09T06:09:59.932Z,101316.59
2022-08-09T06:12:30.386Z,101315.75
2022-08-09T06:15:01.045Z,101295.00
2022-08-09T06:17:40.096Z,101307.88
2022-08-09T06:20:08.108Z,101307.44
2022-08-09T06:22:34.876Z,101293.72
2022-08-09T06:25:01.826Z,101316.78
2022-08-09T06:27:43.216Z,101318.00
2022-08-09T06:30:16.061Z,101321.94
2022-08-09T06:32:58.985Z,101326.31
2022-08-09T06:35:56.605Z,101324.63
2022-08-09T06:38:17.204Z,101331.72
2022-08-09T06:40:45.731Z,101332.09
2022-08-09T06:43:13.508Z,101332.09
2022-08-09T06:46:06.310Z,101326.00
2022-08-09T06:48:30.528Z,101329.13
2022-08-09T06:50:58.953Z,101322.84
2022-08-09T06:53:26.778Z,101324.69
2022-08-09T06:56:00.358Z,101329.22
2022-08-09T07:00:46.802Z,101328.38
2022-08-09T07:01:13.227Z,101339.38
2022-08-09T07:03:53.088Z,101333.28
2022-08-09T07:06:20.779Z,101343.25
2022-08-09T07:08:49.682Z,101348.66
2022-08-09T07:11:17.641Z,101345.28
2022-08-09T07:14:05.374Z,101351.28
2022-08-09T07:16:41.264Z,101340.47
2022-08-09T07:19:15.776Z,101345.56
2022-08-09T07:21:55.533Z,101347.38
2022-08-09T07:24:32.425Z,101346.47
2022-08-09T07:27:23.948Z,101341.47
2022-08-09T07:29:53.003Z,101346.38
2022-08-09T07:32:23.722Z,101340.91
2022-08-09T07:34:59.077Z,101339.72
2022-08-09T07:37:25.695Z,101329.28
2022-08-09T07:39:53.402Z,101333.13
2022-08-09T07:42:23.966Z,101329.41
2022-08-09T07:45:02.651Z,101336.38
2022-08-09T07:48:00.902Z,101330.19
2022-08-09T07:50:34.571Z,101327.41
2022-08-09T07:53:04.619Z,101328.50
2022-08-09T07:55:41.669Z,101325.25
2022-08-09T07:58:18.657Z,101315.59
2022-08-09T08:00:58.646Z,101327.22
2022-08-09T08:03:33.248Z,101323.50
2022-08-09T08:06:04.090Z,101340.66
2022-08-09T08:08:59.782Z,101331.00
2022-08-09T08:12:11.614Z,101325.94
2022-08-09T08:14:06.215Z,101331.19
2022-08-09T08:16:32.965Z,101331.78
2022-08-09T08:19:02.617Z,101332.84
2022-08-09T08:21:30.317Z,101313.22
2022-08-09T08:23:56.697Z,101329.75
2022-08-09T08:26:26.340Z,101315.91
2022-08-09T08:28:53.430Z,101325.50
2022-08-09T08:31:19.818Z,101332.22
2022-08-09T08:33:54.071Z,101336.97
2022-08-09T08:36:28.893Z,101332.31
2022-08-09T08:38:56.405Z,101332.63
2022-08-09T08:41:23.592Z,101339.66
2022-08-09T08:43:50.685Z,101342.28
2022-08-09T08:46:33.302Z,101340.25
2022-08-09T08:49:02.000Z,101337.03
2022-08-09T08:51:41.514Z,101334.69
2022-08-09T08:54:20.519Z,101319.91
2022-08-09T08:56:56.868Z,101320.94
2022-08-09T08:59:40.918Z,101332.69
2022-08-09T09:02:31.382Z,101325.34
2022-08-09T09:05:03.065Z,101335.25
2022-08-09T09:07:36.931Z,101335.78
2022-08-09T09:10:10.083Z,101334.34
2022-08-09T09:12:37.286Z,101342.72
2022-08-09T09:15:06.261Z,101344.28
2022-08-09T09:17:49.478Z,101345.41
2022-08-09T09:20:21.407Z,101338.97
2022-08-09T09:22:56.832Z,101347.28
2022-08-09T09:26:04.850Z,101338.88
2022-08-09T09:29:02.590Z,101343.88
2022-08-09T09:32:01.762Z,101346.69
2022-08-09T09:34:17.988Z,101349.84
2022-08-09T09:36:51.211Z,101348.50
2022-08-09T09:39:22.725Z,101347.72
2022-08-09T09:41:51.234Z,101356.50
2022-08-09T09:44:43.837Z,101352.34
2022-08-09T09:47:16.445Z,101348.72
2022-08-09T09:50:13.393Z,101348.09
2022-08-09T09:52:53.381Z,101345.03
2022-08-09T09:55:28.569Z,101344.25
2022-08-09T09:58:19.316Z,101356.09
2022-08-09T10:00:59.573Z,101337.00
2022-08-09T10:03:57.524Z,101345.47
2022-08-09T10:06:47.228Z,101348.09
2022-08-09T10:09:22.627Z,101333.34
2022-08-09T10:12:12.317Z,101351.91
2022-08-09T10:14:48.385Z,101354.97
2022-08-09T10:17:39.700Z,101354.31
2022-08-09T10:20:32.923Z,101346.94
2022-08-09T10:23:17.307Z,101348.94
2022-08-09T10:26:06.766Z,101346.78
2022-08-09T10:28:34.025Z,101356.78
2022-08-09T10:34:08.976Z,101353.03
2022-08-09T10:36:35.853Z,101348.09
2022-08-09T10:39:03.349Z,101353.81
2022-08-09T10:41:40.417Z,101357.84
2022-08-09T10:44:09.917Z,101343.19
2022-08-09T10:46:54.135Z,101356.59
2022-08-09T10:49:50.899Z,101360.28
2022-08-09T10:52:42.800Z,101348.53
2022-08-09T10:55:26.013Z,101342.66
2022-08-09T10:57:55.874Z,101342.22
2022-08-09T11:01:11.175Z,101338.03
2022-08-09T11:03:49.957Z,101344.94
2022-08-09T11:06:20.886Z,101350.88
2022-08-09T11:08:51.816Z,101359.47
2022-08-09T11:11:20.466Z,101347.56
2022-08-09T11:14:06.828Z,101349.19
2022-08-09T11:16:40.798Z,101348.81
2022-08-09T11:19:09.853Z,101358.03
2022-08-09T11:21:57.451Z,101358.13
2022-08-09T11:24:57.595Z,101348.31
2022-08-09T11:28:02.469Z,101334.44
2022-08-09T11:30:33.686Z,101353.19
2022-08-09T11:33:19.639Z,101344.88
2022-08-09T11:35:54.531Z,101338.84
2022-08-09T11:38:32.665Z,101331.47
2022-08-09T11:41:13.424Z,101338.88
2022-08-09T11:43:41.782Z,101328.94
2022-08-09T11:46:09.366Z,101332.63
2022-08-09T11:48:49.242Z,101328.09
2022-08-09T11:53:06.295Z,101320.16
2022-08-09T11:54:27.589Z,101338.78
2022-08-09T11:57:47.417Z,101336.47
2022-08-09T12:00:27.809Z,101328.94
2022-08-09T12:02:55.488Z,101333.47
2022-08-09T12:05:22.992Z,101329.09
2022-08-09T12:07:50.165Z,101326.28
2022-08-09T12:10:38.558Z,101319.72
2022-08-09T12:14:10.365Z,101320.84
2022-08-09T12:16:03.165Z,101308.72
2022-08-09T12:18:33.538Z,101312.78
2022-08-09T12:21:02.571Z,101313.16
2022-08-09T12:23:47.866Z,101313.69
2022-08-09T12:26:25.396Z,101298.16
2022-08-09T12:29:00.252Z,101308.56
2022-08-09T12:32:01.907Z,101304.38
2022-08-09T12:34:40.389Z,101293.44
2022-08-09T12:37:22.270Z,101301.44
2022-08-09T12:40:10.025Z,101292.00
2022-08-09T12:42:37.389Z,101297.25
2022-08-09T12:45:32.786Z,101301.00
2022-08-09T12:47:52.489Z,101295.47
2022-08-09T12:50:19.662Z,101290.94
2022-08-09T12:53:09.505Z,101294.97
2022-08-09T12:56:11.450Z,101284.63
2022-08-09T12:58:28.047Z,101284.84
2022-08-09T13:00:55.509Z,101276.56
2022-08-09T13:03:56.981Z,101277.06
2022-08-09T13:06:34.602Z,101278.06
2022-08-09T13:09:12.737Z,101267.91
2022-08-09T13:11:45.666Z,101272.44
2022-08-09T13:14:42.231Z,101269.81
2022-08-09T13:17:03.888Z,101270.78
2022-08-09T13:20:08.775Z,101266.91
2022-08-09T13:22:37.824Z,101269.66
2022-08-09T13:25:13.971Z,101270.22
2022-08-09T13:27:48.843Z,101259.69
2022-08-09T13:32:09.967Z,101263.50
2022-08-09T13:33:16.900Z,101260.75
2022-08-09T13:36:24.592Z,101247.19
2022-08-09T13:38:56.196Z,101245.44
2022-08-09T13:41:51.973Z,101239.41
2022-08-09T13:44:08.176Z,101240.22
2022-08-09T13:47:16.593Z,101240.69
2022-08-09T13:49:21.073Z,101241.00
2022-08-09T13:52:01.201Z,101234.19
2022-08-09T13:54:30.380Z,101212.16
2022-08-09T13:56:57.456Z,101226.09
2022-08-09T13:59:25.631Z,101220.34
2022-08-09T14:02:00.731Z,101229.31
2022-08-09T14:04:29.051Z,101236.56
2022-08-09T14:07:03.523Z,101236.41
2022-08-09T14:09:30.746Z,101229.41
2022-08-09T14:12:06.161Z,101228.84
2022-08-09T14:14:41.856Z,101233.84
2022-08-09T14:17:12.052Z,101235.38
2022-08-09T14:19:39.177Z,101236.47
2022-08-09T14:22:06.986Z,101231.84
2022-08-09T14:24:35.569Z,101233.47
2022-08-09T14:27:02.206Z,101227.38
2022-08-09T14:30:35.693Z,101228.47
2022-08-09T14:32:16.443Z,101216.44
2022-08-09T14:34:46.672Z,101225.75
2022-08-09T14:37:22.457Z,101220.44
2022-08-09T14:39:55.281Z,101213.00
2022-08-09T14:42:31.744Z,101211.84
2022-08-09T14:45:14.812Z,101213.25
2022-08-09T14:47:49.747Z,101217.72
2022-08-09T14:50:24.038Z,101209.25
2022-08-09T14:52:51.018Z,101202.09
2022-08-09T14:55:20.739Z,101216.41
2022-08-09T14:57:47.909Z,101219.69
2022-08-09T15:00:15.748Z,101213.28
2022-08-09T15:02:42.173Z,101210.28
2022-08-09T15:05:10.401Z,101212.41
2022-08-09T15:07:37.053Z,101218.19
2022-08-09T15:10:11.222Z,101214.59
2022-08-09T15:12:40.866Z,101209.75
2022-08-09T15:15:11.700Z,101214.94
2022-08-09T15:17:41.794Z,101206.75
2022-08-09T15:20:12.019Z,101214.41
2022-08-09T15:22:47.052Z,101201.69
2022-08-09T15:25:14.347Z,101203.19
2022-08-09T15:27:47.672Z,101206.47
2022-08-09T15:30:58.205Z,101200.44
2022-08-09T15:33:07.848Z,101192.69
2022-08-09T15:35:44.248Z,101198.34
2022-08-09T15:38:12.220Z,101184.91
2022-08-09T15:40:43.637Z,101179.25
2022-08-09T15:43:13.755Z,101198.81
2022-08-09T15:46:07.242Z,101192.38
2022-08-09T15:48:30.487Z,101177.91
2022-08-09T15:51:01.945Z,101185.91
2022-08-09T15:54:05.384Z,101187.91
2022-08-09T15:56:29.154Z,101180.69
2022-08-09T15:58:57.817Z,101188.09
2022-08-09T16:01:24.214Z,101179.41
2022-08-09T16:03:50.988Z,101179.94
2022-08-09T16:06:32.839Z,101175.09
2022-08-09T16:09:03.393Z,101178.16
2022-08-09T16:11:32.908Z,101173.44
2022-08-09T16:14:04.879Z,101165.94
2022-08-09T16:16:33.243Z,101172.84
2022-08-09T16:19:01.166Z,101170.72
2022-08-09T16:21:31.750Z,101178.66
2022-08-09T16:24:02.752Z,101179.41
2022-08-09T16:26:35.338Z,101170.72
2022-08-09T16:29:12.973Z,101174.09
2022-08-09T16:32:18.419Z,101157.72
2022-08-09T16:34:29.406Z,101174.81
2022-08-09T16:37:15.725Z,101175.91
2022-08-09T16:39:54.632Z,101177.06
2022-08-09T16:42:28.616Z,101174.38
2022-08-09T16:44:54.979Z,101171.34
2022-08-09T16:48:41.192Z,101173.00
2022-08-09T16:50:32.144Z,101167.22
2022-08-09T16:52:55.445Z,101176.28
2022-08-09T16:55:22.106Z,101174.66
2022-08-09T16:58:09.147Z,101177.94
2022-08-09T17:00:36.513Z,101173.84
2022-08-09T17:03:05.141Z,101168.16
2022-08-09T17:06:06.669Z,101171.47
2022-08-09T17:08:42.701Z,101167.16
2022-08-09T17:11:06.979Z,101126.09
2022-08-09T17:13:34.122Z,101169.63
2022-08-09T17:16:02.259Z,101171.28
2022-08-09T17:18:29.883Z,101168.63
2022-08-09T17:20:56.870Z,101170.03
2022-08-09T17:23:23.779Z,101171.13
2022-08-09T17:26:10.349Z,101143.50
2022-08-09T17:28:38.880Z,101175.84
2022-08-09T17:31:05.605Z,101175.06
2022-08-09T17:33:35.995Z,101177.00
2022-08-09T17:36:05.384Z,101178.13
2022-08-09T17:38:39.577Z,101178.69
2022-08-09T17:41:07.685Z,101183.38
2022-08-09T17:43:37.317Z,101162.75
2022-08-09T17:46:07.581Z,101175.69
2022-08-09T17:48:38.544Z,101177.91
2022-08-09T17:51:17.141Z,101181.75
2022-08-09T17:53:48.146Z,101180.41
2022-08-09T17:56:19.374Z,101154.63
2022-08-09T17:58:47.124Z,101179.84
2022-08-09T18:01:22.352Z,101186.69
2022-08-09T18:03:51.537Z,101189.72
2022-08-09T18:06:30.687Z,101174.94
2022-08-09T18:09:03.763Z,101193.31
2022-08-09T18:11:47.066Z,101181.81
2022-08-09T18:14:19.921Z,101189.19
2022-08-09T18:16:49.164Z,101197.41
2022-08-09T18:20:58.134Z,101198.50
2022-08-09T18:22:03.482Z,101201.75
2022-08-09T18:24:29.863Z,101201.75
2022-08-09T18:26:57.745Z,101204.19
2022-08-09T18:30:41.262Z,101215.13
2022-08-09T18:32:14.143Z,101199.78
2022-08-09T18:34:45.214Z,101200.59
2022-08-09T18:37:48.156Z,101203.03
2022-08-09T18:39:58.196Z,101197.50
2022-08-09T18:42:32.701Z,101202.41
2022-08-09T18:45:01.079Z,101210.84
2022-08-09T18:47:37.258Z,101208.59
2022-08-09T18:50:06.128Z,101209.97
2022-08-09T18:52:36.358Z,101211.53
2022-08-09T18:55:05.015Z,101202.72
2022-08-09T18:57:43.010Z,101195.84
2022-08-09T19:00:11.709Z,101212.25
2022-08-09T19:02:43.373Z,101219.84
2022-08-09T19:05:19.611Z,101200.53
2022-08-09T19:08:04.835Z,101202.34
2022-08-09T19:10:37.694Z,101230.53
2022-08-09T19:13:20.979Z,101231.31
2022-08-09T19:15:56.625Z,101234.00
2022-08-09T19:18:33.292Z,101235.28
2022-08-09T19:21:03.442Z,101233.59
2022-08-09T19:24:37.136Z,101239.84
2022-08-09T19:26:18.888Z,101246.34
2022-08-09T19:28:55.756Z,101240.50
2022-08-09T19:31:27.769Z,101240.13
2022-08-09T19:33:57.788Z,101249.34
2022-08-09T19:36:30.788Z,101246.06
2022-08-09T19:39:03.577Z,101243.78
2022-08-09T19:41:33.378Z,101243.16
2022-08-09T19:44:03.141Z,101249.09
2022-08-09T19:46:35.253Z,101247.69
2022-08-09T19:50:08.108Z,101243.28
2022-08-09T19:51:55.315Z,101245.69
2022-08-09T19:54:25.060Z,101244.28
2022-08-09T19:56:52.091Z,101246.38
2022-08-09T19:59:57.416Z,101246.63
2022-08-09T20:02:18.103Z,101249.84
2022-08-09T20:04:55.159Z,101249.03
2022-08-09T20:07:22.589Z,101236.84
2022-08-09T20:09:49.156Z,101247.28
2022-08-09T20:12:36.372Z,101253.22
2022-08-09T20:15:04.776Z,101256.38
2022-08-09T20:17:54.296Z,101259.00
2022-08-09T20:20:21.707Z,101260.06
2022-08-09T20:22:48.488Z,101262.16
2022-08-09T20:25:18.063Z,101252.59
2022-08-09T20:27:49.330Z,101257.47
2022-08-09T20:30:17.943Z,101251.69
2022-08-09T20:32:45.640Z,101256.06
2022-08-09T20:35:15.918Z,101264.72
2022-08-09T20:38:22.081Z,101255.16
2022-08-09T20:40:30.081Z,101248.47
2022-08-09T20:43:12.092Z,101258.63
2022-08-09T20:46:00.492Z,101254.25
2022-08-09T20:48:31.528Z,101251.53
2022-08-09T20:50:59.769Z,101251.78
2022-08-09T20:53:36.564Z,101245.41
2022-08-09T20:56:05.112Z,101254.03
2022-08-09T20:58:32.760Z,101248.25
2022-08-09T21:01:13.786Z,101250.88
2022-08-09T21:05:49.521Z,101244.84
2022-08-09T21:06:34.237Z,101255.56
2022-08-09T21:09:02.162Z,101249.44
2022-08-09T21:14:16.670Z,101251.59
2022-08-09T21:16:43.861Z,101243.22
2022-08-09T21:20:16.104Z,101246.19
2022-08-09T21:21:59.294Z,101242.88
2022-08-09T21:24:28.423Z,101244.78
2022-08-09T21:26:56.910Z,101234.16
2022-08-09T21:29:23.396Z,101236.28
2022-08-09T21:31:49.946Z,101231.34
2022-08-09T21:34:28.629Z,101217.28
2022-08-09T21:36:56.495Z,101223.78
2022-08-09T21:39:28.037Z,101218.81
2022-08-09T21:42:10.198Z,101225.94
2022-08-09T21:44:37.911Z,101227.28
2022-08-09T21:47:07.699Z,101220.63
2022-08-09T21:49:39.380Z,101227.41
2022-08-09T21:52:16.944Z,101226.00
2022-08-09T21:55:03.357Z,101231.91
2022-08-09T21:57:39.635Z,101231.34
2022-08-09T22:00:32.079Z,101237.88
2022-08-09T22:03:02.193Z,101236.69
2022-08-09T22:05:35.368Z,101232.56
2022-08-09T22:08:03.721Z,101230.31
2022-08-09T22:10:30.502Z,101233.75
2022-08-09T22:12:57.973Z,101232.59
2022-08-09T22:15:35.098Z,101240.19
2022-08-09T22:18:03.638Z,101240.91
2022-08-09T22:20:31.350Z,101246.34
2022-08-09T22:22:58.217Z,101247.91
2022-08-09T22:26:06.707Z,101240.66
2022-08-09T22:28:11.045Z,101234.44
2022-08-09T22:30:39.036Z,101230.53
2022-08-09T22:33:17.325Z,101244.22
2022-08-09T22:36:02.182Z,101244.72
2022-08-09T22:38:30.212Z,101251.00
2022-08-09T22:40:58.482Z,101254.41
2022-08-09T22:44:02.308Z,101255.16
2022-08-09T22:48:11.072Z,101260.84
2022-08-09T22:49:01.932Z,101252.78
2022-08-09T22:51:38.280Z,101248.63
2022-08-09T22:54:08.157Z,101247.47
2022-08-09T22:56:37.994Z,101246.66
2022-08-09T22:59:55.658Z,101240.13
2022-08-09T23:01:54.544Z,101255.16
2022-08-09T23:04:20.977Z,101249.72
2022-08-09T23:07:14.155Z,101254.47
2022-08-09T23:09:42.844Z,101253.88
2022-08-09T23:12:09.386Z,101255.41
2022-08-09T23:14:37.684Z,101258.34
2022-08-09T23:17:09.277Z,101258.59
2022-08-09T23:20:07.479Z,101258.59
2022-08-09T23:22:22.057Z,101231.03
2022-08-09T23:24:48.839Z,101247.34
2022-08-09T23:27:15.581Z,101258.47
2022-08-09T23:29:41.971Z,101259.53
2022-08-09T23:32:08.405Z,101247.47
2022-08-09T23:34:34.783Z,101249.84
2022-08-09T23:37:01.111Z,101243.81
2022-08-09T23:39:27.526Z,101240.50
2022-08-09T23:41:53.909Z,101246.16
2022-08-09T23:44:20.401Z,101238.94
2022-08-09T23:46:48.429Z,101243.19
2022-08-09T23:49:24.642Z,101236.34
2022-08-09T23:51:51.996Z,101233.50
2022-08-09T23:54:19.683Z,101238.94
2022-08-09T23:56:53.616Z,101241.03
2022-08-09T23:59:22.708Z,101236.31
